createdAt,value
2018-03-25T00:01:04.026Z,93683.61
2018-03-25T00:04:07.317Z,93688.88
2018-03-25T00:07:10.607Z,93687.57
2018-03-25T00:10:13.885Z,93687.44
2018-03-25T00:13:17.968Z,93689.17
2018-03-25T00:16:21.264Z,93692.45
2018-03-25T00:19:24.554Z,93695.72
2018-03-25T00:22:27.846Z,93700.41
2018-03-25T00:25:31.168Z,93709.54
2018-03-25T00:28:34.468Z,93715.25
2018-03-25T00:31:37.753Z,93716.06
2018-03-25T00:34:41.029Z,93712.16
2018-03-25T00:37:44.321Z,93709.75
2018-03-25T00:40:47.756Z,93711.48
2018-03-25T00:43:51.128Z,93711.77
2018-03-25T00:46:54.428Z,93707.36
2018-03-25T00:49:58.198Z,93711.97
2018-03-25T00:53:01.493Z,93710.07
2018-03-25T00:56:05.652Z,93706.90
2018-03-25T00:59:08.938Z,93709.62
2018-03-25T01:02:13.041Z,93707.32
2018-03-25T01:05:16.334Z,93708.56
2018-03-25T01:08:19.662Z,93708.14
2018-03-25T01:11:23.038Z,93707.11
2018-03-25T01:14:26.318Z,93704.72
2018-03-25T01:17:30.387Z,93706.27
2018-03-25T01:20:33.666Z,93701.12
2018-03-25T01:23:36.960Z,93702.29
2018-03-25T01:26:40.358Z,93712.01
2018-03-25T01:29:43.658Z,93713.59
2018-03-25T01:32:46.947Z,93712.60
2018-03-25T01:35:50.218Z,93705.42
2018-03-25T01:38:53.753Z,93706.30
2018-03-25T01:41:57.077Z,93703.20
2018-03-25T01:45:00.370Z,93705.28
2018-03-25T01:48:03.654Z,93699.30
2018-03-25T01:51:06.936Z,93706.41
2018-03-25T01:54:10.241Z,93703.34
2018-03-25T01:57:13.520Z,93699.39
2018-03-25T02:00:16.797Z,93698.75
2018-03-25T02:03:20.113Z,93704.78
2018-03-25T02:06:23.541Z,93703.83
2018-03-25T02:09:27.318Z,93707.39
2018-03-25T02:12:30.731Z,93703.99
2018-03-25T02:15:34.015Z,93708.41
2018-03-25T02:18:37.317Z,93705.55
2018-03-25T02:21:40.594Z,93709.07
2018-03-25T02:24:44.662Z,93719.00
2018-03-25T02:27:48.776Z,93721.59
2018-03-25T02:30:52.104Z,93721.98
2018-03-25T02:33:55.391Z,93718.28
2018-03-25T02:36:58.692Z,93722.97
2018-03-25T02:40:01.970Z,93732.98
2018-03-25T02:43:05.257Z,93733.24
2018-03-25T02:46:08.556Z,93735.74
2018-03-25T02:49:11.856Z,93741.34
2018-03-25T02:52:15.150Z,93747.52
2018-03-25T02:55:18.422Z,93743.66
2018-03-25T02:58:21.743Z,93747.37
2018-03-25T03:01:25.033Z,93758.23
2018-03-25T03:04:28.349Z,93750.08
2018-03-25T03:07:31.641Z,93752.05
2018-03-25T03:10:35.135Z,93754.78
2018-03-25T03:13:38.437Z,93754.50
2018-03-25T03:16:41.807Z,93754.87
2018-03-25T03:19:45.850Z,93751.33
2018-03-25T03:22:49.154Z,93752.66
2018-03-25T03:25:52.429Z,93761.88
2018-03-25T03:28:55.727Z,93762.62
2018-03-25T03:31:59.062Z,93764.88
2018-03-25T03:35:02.361Z,93768.39
2018-03-25T03:38:05.657Z,93772.40
2018-03-25T03:41:08.957Z,93776.45
2018-03-25T03:44:12.249Z,93779.06
2018-03-25T03:47:15.532Z,93775.43
2018-03-25T03:50:18.844Z,93779.81
2018-03-25T03:53:22.134Z,93764.78
2018-03-25T03:56:25.657Z,93770.02
2018-03-25T03:59:29.569Z,93778.80
2018-03-25T04:02:32.878Z,93779.05
2018-03-25T04:05:36.165Z,93777.33
2018-03-25T04:08:39.618Z,93782.65
2018-03-25T04:11:42.926Z,93778.20
2018-03-25T04:14:46.289Z,93780.20
2018-03-25T04:17:50.377Z,93785.60
2018-03-25T04:20:53.681Z,93781.32
2018-03-25T04:23:56.986Z,93784.46
2018-03-25T04:27:00.310Z,93788.19
2018-03-25T04:30:03.999Z,93785.05
2018-03-25T04:33:08.074Z,93786.30
2018-03-25T04:36:11.427Z,93785.61
2018-03-25T04:39:14.885Z,93791.30
2018-03-25T04:42:18.328Z,93790.37
2018-03-25T04:45:21.644Z,93788.52
2018-03-25T04:48:24.994Z,93791.89
2018-03-25T04:51:28.294Z,93783.64
2018-03-25T04:54:31.582Z,93785.10
2018-03-25T04:57:35.035Z,93789.36
2018-03-25T05:00:38.605Z,93790.98
2018-03-25T05:03:41.926Z,93786.45
2018-03-25T05:06:45.240Z,93792.56
2018-03-25T05:09:48.612Z,93790.36
2018-03-25T05:12:52.684Z,93794.06
2018-03-25T05:15:56.029Z,93789.44
2018-03-25T05:18:59.313Z,93785.53
2018-03-25T05:22:02.602Z,93796.14
2018-03-25T05:25:05.918Z,93796.61
2018-03-25T05:28:10.005Z,93800.52
2018-03-25T05:31:13.327Z,93798.64
2018-03-25T05:34:16.637Z,93803.92
2018-03-25T05:37:20.728Z,93804.25
2018-03-25T05:40:24.065Z,93803.92
2018-03-25T05:43:27.689Z,93807.99
2018-03-25T05:46:30.988Z,93807.14
2018-03-25T05:49:34.285Z,93812.23
2018-03-25T05:52:37.835Z,93809.71
2018-03-25T05:55:41.125Z,93808.25
2018-03-25T05:58:44.451Z,93815.09
2018-03-25T06:01:48.493Z,93806.59
2018-03-25T06:04:51.794Z,93809.43
2018-03-25T06:07:55.243Z,93811.15
2018-03-25T06:10:58.541Z,93809.16
2018-03-25T06:14:01.838Z,93820.27
2018-03-25T06:17:05.702Z,93824.45
2018-03-25T06:20:09.197Z,93826.83
2018-03-25T06:23:12.542Z,93829.06
2018-03-25T06:26:15.853Z,93828.94
2018-03-25T06:29:19.166Z,93823.31
2018-03-25T06:32:47.237Z,93827.95
2018-03-25T06:35:51.745Z,93833.45
2018-03-25T06:38:56.628Z,93834.39
2018-03-25T06:42:00.209Z,93833.72
2018-03-25T06:45:04.404Z,93840.52
2018-03-25T06:48:07.926Z,93843.45
2018-03-25T06:51:11.256Z,93845.61
2018-03-25T06:54:14.617Z,93841.77
2018-03-25T06:57:17.872Z,93842.33
2018-03-25T07:00:21.146Z,93848.54
2018-03-25T07:03:25.646Z,93849.74
2018-03-25T07:06:28.932Z,93856.67
2018-03-25T07:09:32.242Z,93863.56
2018-03-25T07:12:35.732Z,93855.88
2018-03-25T07:15:39.093Z,93856.38
2018-03-25T07:18:42.368Z,93858.52
2018-03-25T07:21:45.815Z,93858.52
2018-03-25T07:24:49.247Z,93870.59
2018-03-25T07:27:53.265Z,93869.34
2018-03-25T07:30:57.393Z,93871.84
2018-03-25T07:34:00.947Z,93876.95
2018-03-25T07:37:04.279Z,93878.97
2018-03-25T07:40:07.582Z,93880.20
2018-03-25T07:43:11.618Z,93894.41
2018-03-25T07:46:15.084Z,93894.17
2018-03-25T07:49:19.245Z,93899.53
2018-03-25T07:52:22.550Z,93904.84
2018-03-25T07:55:26.080Z,93914.41
2018-03-25T07:58:29.488Z,93918.44
2018-03-25T08:01:32.776Z,93913.58
2018-03-25T08:04:36.049Z,93910.30
2018-03-25T08:07:39.301Z,93914.16
2018-03-25T08:10:42.586Z,93918.42
2018-03-25T08:13:46.624Z,93925.38
2018-03-25T08:16:49.936Z,93926.39
2018-03-25T08:19:54.030Z,93932.80
2018-03-25T08:22:57.296Z,93931.39
2018-03-25T08:26:00.574Z,93929.98
2018-03-25T08:29:04.023Z,93929.53
2018-03-25T08:32:07.378Z,93937.88
2018-03-25T08:35:10.738Z,93940.25
2018-03-25T08:38:16.466Z,93940.41
2018-03-25T08:41:20.053Z,93942.91
2018-03-25T08:44:23.887Z,93941.22
2018-03-25T08:47:29.104Z,93948.84
2018-03-25T08:50:33.421Z,93948.05
2018-03-25T08:53:37.148Z,93945.84
2018-03-25T08:56:40.679Z,93949.30
2018-03-25T08:59:46.166Z,93947.72
2018-03-25T09:02:49.997Z,93943.21
2018-03-25T09:05:53.453Z,93944.89
2018-03-25T09:08:57.117Z,93940.05
2018-03-25T09:12:00.809Z,93948.09
2018-03-25T09:15:05.711Z,93948.52
2018-03-25T09:18:11.200Z,93948.16
2018-03-25T09:21:15.039Z,93945.30
2018-03-25T09:24:18.834Z,93949.16
2018-03-25T09:27:22.433Z,93955.68
2018-03-25T09:30:26.188Z,93958.30
2018-03-25T09:33:30.783Z,93954.70
2018-03-25T09:36:34.525Z,93950.02
2018-03-25T09:39:37.828Z,93950.00
2018-03-25T09:42:41.385Z,93945.99
2018-03-25T09:45:45.143Z,93948.73
2018-03-25T09:48:48.629Z,93944.05
2018-03-25T09:51:52.698Z,93948.34
2018-03-25T09:54:55.973Z,93953.16
2018-03-25T09:57:59.603Z,93950.59
2018-03-25T10:01:08.730Z,93947.06
2018-03-25T10:04:12.236Z,93951.12
2018-03-25T10:07:16.615Z,93955.84
2018-03-25T10:10:20.711Z,93955.89
2018-03-25T10:13:25.166Z,93952.33
2018-03-25T10:16:28.558Z,93956.61
2018-03-25T10:19:31.836Z,93956.42
2018-03-25T10:22:35.122Z,93952.70
2018-03-25T10:25:38.401Z,93957.91
2018-03-25T10:28:41.940Z,93955.48
2018-03-25T10:31:45.269Z,93952.13
2018-03-25T10:34:49.330Z,93952.59
2018-03-25T10:37:52.612Z,93954.88
2018-03-25T10:40:55.885Z,93953.17
2018-03-25T10:43:59.217Z,93946.91
2018-03-25T10:47:02.541Z,93948.67
2018-03-25T10:50:06.427Z,93945.92
2018-03-25T10:53:10.501Z,93947.14
2018-03-25T10:56:13.794Z,93944.80
2018-03-25T10:59:17.060Z,93948.02
2018-03-25T11:02:20.338Z,93949.06
2018-03-25T11:05:24.364Z,93947.35
2018-03-25T11:08:27.645Z,93946.28
2018-03-25T11:11:31.716Z,93950.66
2018-03-25T11:14:35.991Z,93945.23
2018-03-25T11:17:40.029Z,93944.29
2018-03-25T11:20:43.310Z,93942.63
2018-03-25T11:23:46.717Z,93940.05
2018-03-25T11:26:50.086Z,93946.61
2018-03-25T11:29:53.356Z,93940.43
2018-03-25T11:32:56.682Z,93941.55
2018-03-25T11:36:00.936Z,93943.15
2018-03-25T11:39:04.234Z,93936.88
2018-03-25T11:42:07.577Z,93942.41
2018-03-25T11:45:10.864Z,93943.36
2018-03-25T11:48:14.152Z,93943.59
2018-03-25T11:51:17.946Z,93936.73
2018-03-25T11:54:27.367Z,93939.88
2018-03-25T11:57:33.116Z,93938.00
2018-03-25T12:00:37.169Z,93934.59
2018-03-25T12:03:40.468Z,93938.88
2018-03-25T12:06:43.752Z,93940.34
2018-03-25T12:09:47.052Z,93932.04
2018-03-25T12:12:50.334Z,93932.60
2018-03-25T12:15:53.608Z,93932.86
2018-03-25T12:18:56.945Z,93937.50
2018-03-25T12:22:00.961Z,93935.66
2018-03-25T12:25:04.246Z,93938.50
2018-03-25T12:28:08.539Z,93934.14
2018-03-25T12:31:12.579Z,93929.41
2018-03-25T12:34:15.854Z,93931.63
2018-03-25T12:37:19.961Z,93919.45
2018-03-25T12:40:24.215Z,93927.95
2018-03-25T12:43:27.517Z,93916.82
2018-03-25T12:46:30.793Z,93917.88
2018-03-25T12:49:34.961Z,93915.41
2018-03-25T12:52:38.252Z,93918.58
2018-03-25T12:55:41.752Z,93921.48
2018-03-25T12:58:45.251Z,93914.02
2018-03-25T13:01:48.536Z,93915.59
2018-03-25T13:04:51.826Z,93920.48
2018-03-25T13:07:55.158Z,93926.98
2018-03-25T13:10:58.471Z,93930.08
2018-03-25T13:14:01.776Z,93916.17
2018-03-25T13:17:05.058Z,93920.37
2018-03-25T13:20:08.345Z,93924.47
2018-03-25T13:23:11.631Z,93923.70
2018-03-25T13:29:17.579Z,93925.02
2018-03-25T13:32:24.163Z,93925.42
2018-03-25T13:35:27.615Z,93920.45
2018-03-25T13:38:30.898Z,93920.41
2018-03-25T13:41:34.222Z,93920.92
2018-03-25T13:44:37.517Z,93924.39
2018-03-25T13:47:41.534Z,93919.30
2018-03-25T13:50:44.866Z,93924.34
2018-03-25T13:53:48.175Z,93921.13
2018-03-25T13:56:51.457Z,93923.45
2018-03-25T13:59:54.751Z,93915.09
2018-03-25T14:02:58.957Z,93916.53
2018-03-25T14:06:03.027Z,93911.87
2018-03-25T14:09:07.985Z,93914.48
2018-03-25T14:12:11.281Z,93913.61
2018-03-25T14:15:14.605Z,93910.84
2018-03-25T14:18:17.828Z,93911.27
2018-03-25T14:21:21.125Z,93916.88
2018-03-25T14:24:24.409Z,93913.16
2018-03-25T14:27:28.557Z,93910.20
2018-03-25T14:30:32.103Z,93909.64
2018-03-25T14:33:35.467Z,93915.28
2018-03-25T14:36:38.761Z,93909.45
2018-03-25T14:39:42.046Z,93918.37
2018-03-25T14:42:45.357Z,93911.32
2018-03-25T14:45:48.670Z,93916.28
2018-03-25T14:48:51.987Z,93908.66
2018-03-25T14:51:55.248Z,93909.78
2018-03-25T14:54:58.595Z,93909.64
2018-03-25T14:58:02.553Z,93914.03
2018-03-25T15:01:05.928Z,93904.52
2018-03-25T15:04:10.106Z,93914.95
2018-03-25T15:07:13.381Z,93915.39
2018-03-25T15:10:16.652Z,93918.11
2018-03-25T15:13:19.973Z,93915.58
2018-03-25T15:16:23.245Z,93919.20
2018-03-25T15:19:27.370Z,93914.16
2018-03-25T15:22:31.972Z,93907.95
2018-03-25T15:25:36.016Z,93906.80
2018-03-25T15:28:39.292Z,93912.30
2018-03-25T15:31:42.554Z,93912.39
2018-03-25T15:34:45.889Z,93912.03
2018-03-25T15:37:49.936Z,93923.08
2018-03-25T15:40:53.214Z,93915.98
2018-03-25T15:43:56.498Z,93915.48
2018-03-25T15:47:00.530Z,93916.91
2018-03-25T15:50:04.324Z,93919.47
2018-03-25T15:53:07.627Z,93922.56
2018-03-25T15:59:14.915Z,93928.38
2018-03-25T16:02:19.185Z,93920.97
2018-03-25T16:05:22.467Z,93924.22
2018-03-25T16:08:25.768Z,93928.41
2018-03-25T16:11:29.062Z,93927.33
2018-03-25T16:14:32.343Z,93927.53
2018-03-25T16:17:35.754Z,93933.97
2018-03-25T16:20:39.080Z,93932.22
2018-03-25T16:23:42.684Z,93934.66
2018-03-25T16:26:45.965Z,93932.89
2018-03-25T16:29:49.347Z,93937.77
2018-03-25T16:32:53.424Z,93937.73
2018-03-25T16:35:56.698Z,93940.09
2018-03-25T16:38:59.993Z,93945.05
2018-03-25T16:42:03.698Z,93941.09
2018-03-25T16:45:08.933Z,93945.80
2018-03-25T16:48:12.213Z,93954.23
2018-03-25T16:51:15.508Z,93956.72
2018-03-25T16:54:18.811Z,93958.81
2018-03-25T16:57:22.077Z,93957.05
2018-03-25T17:00:25.396Z,93964.86
2018-03-25T17:03:28.727Z,93968.58
2018-03-25T17:06:32.135Z,93972.94
2018-03-25T17:09:35.517Z,93975.24
2018-03-25T17:12:41.969Z,93973.02
2018-03-25T17:15:48.756Z,93983.38
2018-03-25T17:18:52.046Z,93991.05
2018-03-25T17:21:55.378Z,93998.94
2018-03-25T17:24:58.673Z,94000.93
2018-03-25T17:28:01.979Z,94007.66
2018-03-25T17:31:05.432Z,94006.09
2018-03-25T17:34:09.485Z,94010.00
2018-03-25T17:37:12.755Z,94013.88
2018-03-25T17:40:16.057Z,94015.45
2018-03-25T17:43:19.470Z,94017.01
2018-03-25T17:46:22.866Z,94020.81
2018-03-25T17:49:26.594Z,94020.28
2018-03-25T17:52:29.962Z,94022.14
2018-03-25T17:55:33.257Z,94023.77
2018-03-25T17:58:37.494Z,94027.78
2018-03-25T18:01:40.788Z,94031.70
2018-03-25T18:04:44.073Z,94034.37
2018-03-25T18:07:47.345Z,94041.50
2018-03-25T18:10:51.395Z,94041.83
2018-03-25T18:13:54.682Z,94041.44
2018-03-25T18:16:58.088Z,94049.98
2018-03-25T18:20:01.396Z,94050.47
2018-03-25T18:23:04.680Z,94055.86
2018-03-25T18:26:07.976Z,94056.48
2018-03-25T18:29:12.040Z,94062.65
2018-03-25T18:32:15.322Z,94079.80
2018-03-25T18:35:18.590Z,94071.17
2018-03-25T18:38:21.867Z,94085.12
2018-03-25T18:41:25.905Z,94082.28
2018-03-25T18:44:29.173Z,94087.62
2018-03-25T18:47:33.521Z,94092.65
2018-03-25T18:50:37.062Z,94092.73
2018-03-25T18:53:40.360Z,94092.08
2018-03-25T18:56:43.924Z,94099.74
2018-03-25T18:59:47.504Z,94105.70
2018-03-25T19:02:51.860Z,94106.81
2018-03-25T19:05:55.469Z,94109.77
2018-03-25T19:08:58.861Z,94098.64
2018-03-25T19:12:02.134Z,94108.23
2018-03-25T19:15:06.166Z,94107.23
2018-03-25T19:18:10.212Z,94108.58
2018-03-25T19:21:13.486Z,94110.47
2018-03-25T19:24:16.788Z,94109.95
2018-03-25T19:27:20.049Z,94106.41
2018-03-25T19:30:24.097Z,94101.87
2018-03-25T19:33:28.315Z,94108.45
2018-03-25T19:36:31.585Z,94104.30
2018-03-25T19:39:35.648Z,94103.66
2018-03-25T19:42:38.992Z,94108.85
2018-03-25T19:45:42.269Z,94106.83
2018-03-25T19:48:45.544Z,94114.58
2018-03-25T19:51:48.836Z,94110.70
2018-03-25T19:54:52.136Z,94116.83
2018-03-25T19:57:55.408Z,94115.58
2018-03-25T20:00:59.424Z,94116.50
2018-03-25T20:04:02.709Z,94121.60
2018-03-25T20:07:06.745Z,94117.88
2018-03-25T20:10:10.013Z,94120.18
2018-03-25T20:13:13.313Z,94122.09
2018-03-25T20:16:17.365Z,94127.48
2018-03-25T20:19:20.712Z,94123.70
2018-03-25T20:22:23.961Z,94126.98
2018-03-25T20:25:27.248Z,94125.13
2018-03-25T20:28:30.547Z,94123.16
2018-03-25T20:31:33.813Z,94129.95
2018-03-25T20:34:37.856Z,94133.32
2018-03-25T20:37:41.125Z,94127.73
2018-03-25T20:40:45.184Z,94133.86
2018-03-25T20:43:48.502Z,94134.20
2018-03-25T20:46:51.767Z,94132.59
2018-03-25T20:49:55.037Z,94131.39
2018-03-25T20:52:59.244Z,94137.16
2018-03-25T20:56:02.565Z,94134.11
2018-03-25T20:59:05.833Z,94133.95
2018-03-25T21:02:10.219Z,94143.66
2018-03-25T21:05:13.491Z,94133.13
2018-03-25T21:08:16.980Z,94141.16
2018-03-25T21:11:21.042Z,94142.19
2018-03-25T21:14:24.314Z,94141.16
2018-03-25T21:17:27.610Z,94142.56
2018-03-25T21:20:30.990Z,94144.53
2018-03-25T21:23:35.024Z,94147.58
2018-03-25T21:26:38.301Z,94150.14
2018-03-25T21:29:42.357Z,94146.22
2018-03-25T21:32:45.622Z,94142.39
2018-03-25T21:35:48.970Z,94146.44
2018-03-25T21:38:52.449Z,94152.27
2018-03-25T21:41:55.742Z,94150.33
2018-03-25T21:44:59.656Z,94154.20
2018-03-25T21:48:03.077Z,94155.87
2018-03-25T21:51:06.514Z,94155.48
2018-03-25T21:54:09.864Z,94161.11
2018-03-25T21:57:15.224Z,94162.45
2018-03-25T22:00:18.784Z,94164.14
2018-03-25T22:03:24.258Z,94169.72
2018-03-25T22:06:27.870Z,94172.30
2018-03-25T22:09:31.146Z,94174.46
2018-03-25T22:12:34.594Z,94172.48
2018-03-25T22:15:38.029Z,94173.17
2018-03-25T22:19:00.288Z,94176.12
2018-03-25T22:22:03.696Z,94175.36
2018-03-25T22:25:07.789Z,94177.56
2018-03-25T22:28:11.828Z,94184.61
2018-03-25T22:31:16.123Z,94187.45
2018-03-25T22:34:20.169Z,94186.30
2018-03-25T22:37:23.776Z,94195.42
2018-03-25T22:40:27.082Z,94192.95
2018-03-25T22:43:30.366Z,94197.54
2018-03-25T22:46:33.775Z,94196.70
2018-03-25T22:49:37.074Z,94196.84
2018-03-25T22:52:40.368Z,94201.41
2018-03-25T22:55:43.793Z,94198.87
2018-03-25T22:58:47.263Z,94200.06
2018-03-25T23:01:50.554Z,94204.06
2018-03-25T23:04:56.251Z,94203.90
2018-03-25T23:08:11.362Z,94209.22
2018-03-25T23:11:14.852Z,94209.30
2018-03-25T23:14:18.121Z,94204.46
2018-03-25T23:17:21.401Z,94208.77
2018-03-25T23:20:24.694Z,94207.08
2018-03-25T23:23:28.193Z,94205.77
2018-03-25T23:26:31.486Z,94206.98
2018-03-25T23:29:35.535Z,94210.03
2018-03-25T23:32:38.902Z,94208.39
2018-03-25T23:35:42.194Z,94198.77
2018-03-25T23:38:46.240Z,94201.53
2018-03-25T23:41:49.520Z,94205.77
2018-03-25T23:44:53.560Z,94207.61
2018-03-25T23:47:56.836Z,94208.11
2018-03-25T23:51:00.124Z,94201.84
2018-03-25T23:54:04.165Z,94200.03
2018-03-25T23:57:07.488Z,94200.84
